Time;durP1;ratioP1;P1;durP2;ratioP2;P2;SDS_P1;SDS_P2;PMS_P1;PMS_P2;Temp;Humidity;BMP_temperature;BMP_pressure;BME280_temperature;BME280_humidity;BME280_pressure;Samples;Min_cycle;Max_cycle;Signal;HPM_P1;HPM_P2
2022/03/21 00:01:16;;;;;;;13.00;10.73;;;4.80;99.90;;;5.45;49.65;-19912.31;4991982;28;20296;-57
2022/03/21 00:03:45;;;;;;;13.73;10.60;;;4.80;99.90;;;5.42;49.51;-19911.44;4992270;28;20189;-58
2022/03/21 00:06:13;;;;;;;14.20;11.00;;;4.80;99.90;;;5.56;49.85;-19916.06;4991768;28;20221;-57
2022/03/21 00:08:43;;;;;;;15.97;10.40;;;4.80;99.90;;;5.66;49.74;-19919.47;4992257;28;20197;-59
2022/03/21 00:11:13;;;;;;;14.27;10.73;;;4.80;99.90;;;5.48;50.15;-19913.34;4992144;28;20251;-56
2022/03/21 00:13:42;;;;;;;14.63;11.00;;;4.80;99.90;;;5.50;50.39;-19914.00;4992269;28;20335;-56
2022/03/21 00:16:13;;;;;;;12.57;10.70;;;4.70;99.90;;;5.59;48.97;-19917.25;4992160;28;20243;-59
2022/03/21 00:18:41;;;;;;;14.27;10.80;;;4.80;99.90;;;5.49;49.75;-19913.66;4992086;28;20211;-57
2022/03/21 00:21:09;;;;;;;14.07;10.20;;;4.80;99.90;;;5.37;49.83;-19909.75;4991887;28;20275;-56
2022/03/21 00:23:37;;;;;;;13.93;11.30;;;4.70;99.90;;;5.31;50.17;-19907.53;4995631;28;20295;-58
2022/03/21 00:26:05;;;;;;;13.07;11.07;;;4.70;99.90;;;5.40;49.75;-19910.59;4995559;28;20683;-60
2022/03/21 00:28:35;;;;;;;13.13;10.83;;;4.70;99.90;;;5.27;49.98;-19906.31;4995570;28;20236;-56
2022/03/21 00:31:03;;;;;;;17.53;10.27;;;4.60;99.90;;;5.27;50.12;-19906.16;4995564;28;20750;-57
2022/03/21 00:33:31;;;;;;;14.53;10.57;;;4.60;99.90;;;5.47;49.57;-19913.16;4995217;28;20663;-56
2022/03/21 00:36:00;;;;;;;13.90;10.50;;;4.70;99.90;;;5.39;49.72;-19910.25;4995630;28;20204;-56
2022/03/21 00:38:28;;;;;;;12.13;10.67;;;4.60;99.90;;;5.43;49.38;-19911.78;4995282;28;20706;-58
2022/03/21 00:40:56;;;;;;;14.17;10.10;;;4.70;99.90;;;5.53;49.44;-19915.22;4995588;28;20226;-57
2022/03/21 00:43:26;;;;;;;12.87;10.03;;;4.70;99.90;;;5.45;49.65;-19912.31;4995431;28;20298;-55
2022/03/21 00:45:57;;;;;;;13.57;10.50;;;4.70;99.90;;;5.73;48.72;-19922.03;4995220;28;20260;-57
2022/03/21 00:48:27;;;;;;;12.07;10.27;;;4.80;99.90;;;5.58;49.47;-19916.91;4995453;28;20201;-58
2022/03/21 00:50:58;;;;;;;13.73;10.57;;;4.80;99.90;;;5.33;49.93;-19908.19;4995034;28;20205;-58
2022/03/21 00:53:26;;;;;;;14.37;11.13;;;4.70;99.90;;;5.36;49.89;-19909.41;4995495;28;20220;-59
2022/03/21 00:55:54;;;;;;;11.53;10.10;;;4.70;99.90;;;5.32;49.73;-19908.03;4995257;28;20200;-58
2022/03/21 00:58:23;;;;;;;12.97;10.33;;;4.70;99.90;;;5.44;49.68;-19912.13;4995214;28;20200;-57
2022/03/21 01:00:51;;;;;;;14.47;10.90;;;4.70;99.90;;;5.41;49.58;-19910.94;4994982;28;20762;-59
2022/03/21 01:03:23;;;;;;;13.17;10.13;;;4.70;99.90;;;5.45;49.47;-19912.31;4994753;28;20200;-58
2022/03/21 01:05:51;;;;;;;14.50;10.90;;;4.70;99.90;;;5.52;49.62;-19914.88;4994567;28;20245;-58
2022/03/21 01:08:19;;;;;;;11.53;9.97;;;4.70;99.90;;;5.58;48.98;-19916.75;4995247;28;20669;-55
2022/03/21 01:10:47;;;;;;;14.47;10.83;;;4.80;99.90;;;5.57;49.17;-19916.41;4995106;28;20208;-57
2022/03/21 01:13:18;;;;;;;14.03;10.77;;;4.80;99.90;;;5.32;49.51;-19908.03;4994603;28;20694;-56
2022/03/21 01:15:46;;;;;;;13.87;9.90;;;4.70;99.90;;;5.36;49.52;-19909.41;4994938;28;20250;-57
2022/03/21 01:18:14;;;;;;;13.50;10.63;;;4.70;99.90;;;5.49;49.04;-19913.66;4994989;28;20206;-55
2022/03/21 01:20:43;;;;;;;13.93;10.47;;;4.70;99.90;;;5.52;49.36;-19914.69;4994763;28;20258;-59
2022/03/21 01:23:16;;;;;;;14.03;10.00;;;4.70;99.90;;;5.39;49.30;-19910.25;5004434;28;20200;-56
2022/03/21 01:25:53;;;;;;;12.53;10.13;;;4.70;99.90;;;5.17;50.21;-19902.91;4999015;28;20227;-56
2022/03/21 01:28:29;;;;;;;13.43;9.97;;;4.60;99.90;;;5.19;50.08;-19903.41;4998784;28;20227;-57
2022/03/21 01:31:02;;;;;;;12.60;10.20;;;4.50;99.90;;;5.03;50.70;-19897.94;5002302;28;20239;-58
2022/03/21 01:33:35;;;;;;;12.20;9.50;;;4.50;99.90;;;5.14;50.36;-19901.72;4997652;28;20189;-56
2022/03/21 01:36:07;;;;;;;13.43;10.37;;;4.40;99.90;;;5.10;50.72;-19900.34;5008279;28;20211;-58
2022/03/21 01:38:41;;;;;;;13.33;10.73;;;4.40;99.90;;;5.12;50.46;-19901.19;4996782;28;20309;-57
2022/03/21 01:41:22;;;;;;;13.83;10.17;;;4.40;99.90;;;4.92;51.07;-19894.53;5001555;28;20279;-57
2022/03/21 01:44:00;;;;;;;13.50;10.00;;;4.30;99.90;;;4.83;51.56;-19891.44;4996989;28;20263;-56
2022/03/21 01:46:30;;;;;;;13.60;10.27;;;4.20;99.90;;;4.93;51.26;-19894.69;4995069;28;20299;-58
2022/03/21 01:49:00;;;;;;;14.13;10.67;;;4.20;99.90;;;4.94;50.70;-19895.03;4993952;28;20228;-57
2022/03/21 01:51:30;;;;;;;12.87;9.73;;;4.30;99.90;;;4.80;51.37;-19890.25;4999997;28;20235;-56
2022/03/21 01:56:52;;;;;;;12.80;10.13;;;4.20;99.90;;;4.90;51.06;-19893.84;5001507;28;20224;-58
2022/03/21 01:59:26;;;;;;;14.40;10.40;;;4.20;99.90;;;4.75;51.88;-19888.72;5000880;28;20372;-58
2022/03/21 02:01:56;;;;;;;15.73;10.47;;;4.10;99.90;;;4.84;51.19;-19891.63;5002304;28;20239;-56
2022/03/21 02:04:30;;;;;;;11.60;9.70;;;4.10;99.90;;;4.85;51.14;-19892.13;5002455;28;20246;-56
2022/03/21 02:07:04;;;;;;;12.07;10.00;;;4.10;99.90;;;4.87;51.10;-19892.81;4995995;28;20235;-56
2022/03/21 02:09:37;;;;;;;12.97;10.10;;;4.10;99.90;;;4.80;51.57;-19890.41;4995714;28;20194;-55
2022/03/21 02:12:17;;;;;;;13.00;9.83;;;4.10;99.90;;;4.68;51.97;-19886.16;4983179;28;20230;-56
2022/03/21 02:14:51;;;;;;;15.53;10.10;;;4.10;99.90;;;4.54;51.76;-19881.38;4998693;28;20512;-57
2022/03/21 02:17:27;;;;;;;12.70;10.07;;;4.00;99.90;;;4.72;51.73;-19887.69;5015778;28;20231;-58
2022/03/21 02:20:03;;;;;;;14.83;10.17;;;4.00;99.90;;;4.82;51.43;-19890.94;5018052;28;20234;-54
2022/03/21 02:22:55;;;;;;;14.57;10.37;;;4.00;99.90;;;4.81;52.03;-19890.59;5018892;28;20230;-57
2022/03/21 02:25:36;;;;;;;13.63;10.70;;;4.00;99.90;;;4.84;51.15;-19891.63;5014933;28;20273;-56
2022/03/21 02:28:13;;;;;;;12.53;9.80;;;4.10;99.90;;;4.59;51.81;-19883.06;5014638;28;20237;-55
2022/03/21 02:30:50;;;;;;;13.60;10.77;;;4.00;99.90;;;4.67;51.71;-19885.81;5019044;28;20295;-56
2022/03/21 02:33:29;;;;;;;14.40;10.40;;;4.00;99.90;;;4.65;51.45;-19885.28;5020418;28;20183;-57
2022/03/21 02:36:10;;;;;;;15.47;9.83;;;3.90;99.90;;;4.84;51.19;-19891.63;5025906;28;20188;-56
2022/03/21 02:38:42;;;;;;;12.83;10.40;;;4.00;99.90;;;4.67;51.58;-19885.97;4998128;28;20231;-56
2022/03/21 02:41:18;;;;;;;13.90;10.13;;;4.00;99.90;;;4.69;51.27;-19886.66;5015087;28;20246;-57
2022/03/21 02:44:01;;;;;;;13.87;10.27;;;4.00;99.90;;;4.57;51.64;-19882.38;5020261;28;20234;-57
2022/03/21 02:46:30;;;;;;;12.50;9.97;;;4.00;99.90;;;4.51;52.08;-19880.50;5015128;28;20312;-57
2022/03/21 02:49:06;;;;;;;12.90;10.00;;;3.90;99.90;;;4.54;51.85;-19881.53;5017482;28;20298;-57
2022/03/21 02:51:42;;;;;;;13.40;9.30;;;3.90;99.90;;;4.71;51.53;-19887.19;5018759;28;20664;-58
2022/03/21 02:54:19;;;;;;;11.77;10.13;;;3.80;99.90;;;4.43;52.37;-19877.78;5026871;28;20201;-58
2022/03/21 02:56:53;;;;;;;12.70;10.07;;;3.80;99.90;;;4.40;52.46;-19876.56;5020205;28;20230;-58
2022/03/21 02:59:25;;;;;;;14.67;10.43;;;3.80;99.90;;;4.64;51.82;-19884.97;5018105;28;20299;-56
2022/03/21 03:01:56;;;;;;;12.30;9.70;;;3.80;99.90;;;4.54;52.19;-19881.38;5004918;28;20239;-58
2022/03/21 03:04:30;;;;;;;14.13;10.13;;;3.80;99.90;;;4.66;52.17;-19885.63;5014950;28;20226;-59
2022/03/21 03:07:04;;;;;;;12.63;9.97;;;3.80;99.90;;;4.37;52.44;-19875.72;5018542;28;20233;-55
2022/03/21 03:09:36;;;;;;;12.87;9.93;;;3.70;99.90;;;4.28;52.87;-19872.47;5022044;28;20233;-54
2022/03/21 03:12:11;;;;;;;12.20;9.77;;;3.70;99.90;;;4.51;52.06;-19880.50;5007575;28;20202;-56
2022/03/21 03:14:46;;;;;;;13.43;10.47;;;3.70;99.90;;;4.55;51.82;-19881.88;5016468;28;20252;-56
2022/03/21 03:17:17;;;;;;;15.20;10.30;;;3.80;99.90;;;4.46;52.35;-19878.63;5013154;28;20232;-56
2022/03/21 03:19:55;;;;;;;15.50;10.37;;;3.70;99.90;;;4.61;51.70;-19883.75;5014392;28;20237;-55
2022/03/21 03:22:30;;;;;;;14.20;9.80;;;3.80;99.90;;;4.47;51.99;-19878.97;5019062;28;20240;-58
2022/03/21 03:25:06;;;;;;;11.87;9.43;;;3.70;99.90;;;4.33;52.68;-19874.34;5019141;28;20237;-57
2022/03/21 03:27:41;;;;;;;14.10;10.73;;;3.70;99.90;;;4.51;52.01;-19880.50;5020430;28;20206;-56
2022/03/21 03:30:14;;;;;;;13.53;10.33;;;3.70;99.90;;;4.28;52.54;-19872.66;5026055;28;20295;-56
2022/03/21 03:32:47;;;;;;;12.80;9.57;;;3.60;99.90;;;4.19;52.83;-19869.56;5025215;28;20210;-57
2022/03/21 03:35:24;;;;;;;15.70;10.70;;;3.60;99.90;;;4.19;52.70;-19869.56;5021673;28;20234;-59
2022/03/21 03:37:56;;;;;;;13.77;10.13;;;3.60;99.90;;;4.23;52.73;-19870.94;5020044;28;20222;-56
2022/03/21 03:40:30;;;;;;;10.90;9.63;;;3.50;99.90;;;4.25;52.33;-19871.63;5017488;28;20644;-58
2022/03/21 03:43:05;;;;;;;10.77;9.03;;;3.50;99.90;;;4.29;52.63;-19873.00;5018055;28;20299;-56
2022/03/21 03:45:40;;;;;;;11.77;9.57;;;3.50;99.90;;;4.11;53.06;-19866.84;5017478;28;20182;-57
2022/03/21 03:48:14;;;;;;;11.77;9.47;;;3.50;99.90;;;4.06;52.86;-19865.13;5025069;28;20191;-57
2022/03/21 03:50:45;;;;;;;13.13;9.37;;;3.40;99.90;;;4.12;53.03;-19867.19;5024745;28;20232;-57
2022/03/21 03:53:18;;;;;;;13.20;9.33;;;3.40;99.90;;;4.13;52.79;-19867.34;5016626;28;20654;-56
2022/03/21 03:55:50;;;;;;;12.80;9.83;;;3.40;99.90;;;3.88;53.27;-19858.81;5018634;28;20242;-57
2022/03/21 03:58:27;;;;;;;11.70;9.73;;;3.30;99.90;;;3.94;53.41;-19860.84;5017172;28;20250;-57
2022/03/21 04:01:04;;;;;;;12.10;9.40;;;3.30;99.90;;;4.25;52.53;-19871.44;5023472;28;20775;-55
2022/03/21 04:03:45;;;;;;;11.77;9.40;;;3.40;99.90;;;4.26;52.38;-19871.78;5022802;28;20216;-58
2022/03/21 04:06:19;;;;;;;12.83;9.63;;;3.40;99.90;;;3.96;52.82;-19861.53;5024499;28;20214;-55
2022/03/21 04:08:54;;;;;;;14.67;10.13;;;3.30;99.90;;;3.96;53.22;-19861.53;5028497;28;20207;-55
2022/03/21 04:11:27;;;;;;;12.07;10.10;;;3.30;99.90;;;3.81;53.68;-19856.41;5021294;28;20229;-59
2022/03/21 04:14:01;;;;;;;13.40;9.77;;;3.30;99.90;;;3.72;54.20;-19853.50;5003006;28;20235;-58
2022/03/21 04:16:32;;;;;;;12.40;9.40;;;3.20;99.90;;;3.77;53.96;-19855.22;5013298;28;20287;-55
2022/03/21 04:19:08;;;;;;;12.83;9.73;;;3.10;99.90;;;3.69;53.82;-19852.47;5019414;28;20315;-54
2022/03/21 04:21:41;;;;;;;12.43;9.77;;;3.10;99.90;;;3.63;54.26;-19850.44;5017707;28;20234;-54
2022/03/21 04:24:14;;;;;;;13.27;9.37;;;3.10;99.90;;;3.70;54.25;-19852.81;5028050;28;20187;-54
2022/03/21 04:26:44;;;;;;;11.93;8.93;;;3.10;99.90;;;3.51;54.75;-19846.50;5025675;28;20221;-53
2022/03/21 04:29:24;;;;;;;13.17;9.77;;;3.00;99.90;;;3.57;54.83;-19848.38;5026098;28;20296;-52
2022/03/21 04:31:55;;;;;;;14.43;10.03;;;2.90;99.90;;;3.67;54.15;-19851.97;4994705;28;20248;-54
2022/03/21 04:34:34;;;;;;;11.47;8.90;;;2.90;99.90;;;3.51;54.59;-19846.50;5005297;28;20231;-52
2022/03/21 04:37:07;;;;;;;13.53;9.90;;;2.90;99.90;;;3.54;54.56;-19847.53;5021369;28;20657;-54
2022/03/21 04:39:41;;;;;;;12.40;9.40;;;2.90;99.90;;;3.79;54.41;-19855.72;5019351;28;20228;-54
2022/03/21 04:42:31;;;;;;;11.67;9.83;;;2.90;99.90;;;3.67;54.16;-19851.97;5028353;28;20210;-51
2022/03/21 04:45:20;;;;;;;12.63;8.77;;;2.90;99.90;;;3.75;53.79;-19854.53;5000099;28;20247;-51
2022/03/21 04:47:54;;;;;;;13.07;9.57;;;2.90;99.90;;;3.63;53.95;-19850.44;5017954;28;20214;-54
2022/03/21 04:50:28;;;;;;;11.87;9.13;;;2.90;99.90;;;3.53;54.05;-19847.00;5017041;28;20226;-55
2022/03/21 04:53:06;;;;;;;13.53;9.13;;;2.90;99.90;;;3.50;54.44;-19846.16;5023841;28;20257;-55
2022/03/21 04:55:40;;;;;;;14.20;9.60;;;2.80;99.90;;;3.46;54.71;-19844.63;5019848;28;20239;-54
2022/03/21 04:58:17;;;;;;;13.17;9.13;;;2.80;99.90;;;3.48;54.61;-19845.47;5016282;28;20307;-55
2022/03/21 05:00:51;;;;;;;16.47;10.40;;;2.80;99.90;;;3.53;54.65;-19847.00;5017362;28;20663;-56
2022/03/21 05:03:29;;;;;;;13.43;9.27;;;2.70;99.90;;;3.59;54.30;-19849.22;5017473;28;20202;-54
2022/03/21 05:05:59;;;;;;;13.17;9.03;;;2.80;99.90;;;3.71;53.99;-19853.16;5015609;28;20214;-53
2022/03/21 05:08:31;;;;;;;11.63;9.00;;;2.80;99.90;;;3.44;54.97;-19843.94;5018011;28;20256;-50
2022/03/21 05:11:07;;;;;;;13.30;9.10;;;2.80;99.90;;;3.46;54.89;-19844.63;5005421;28;20230;-55
2022/03/21 05:13:40;;;;;;;13.27;9.33;;;2.70;99.90;;;3.51;54.56;-19846.31;5022851;28;20269;-55
2022/03/21 05:16:19;;;;;;;13.80;8.60;;;2.80;99.90;;;3.35;55.12;-19841.03;5015724;28;20260;-52
2022/03/21 05:18:55;;;;;;;13.53;9.20;;;2.70;99.90;;;3.43;54.93;-19843.59;5016323;28;20246;-55
2022/03/21 05:21:31;;;;;;;12.53;8.73;;;2.80;99.90;;;3.67;54.35;-19851.97;5017059;28;20210;-53
2022/03/21 05:32:42;;;;;;;13.40;8.93;;;2.70;99.90;;;3.45;54.92;-19844.44;5021114;28;20239;-56
2022/03/21 05:38:05;;;;;;;11.33;8.73;;;2.70;99.90;;;3.48;54.96;-19845.47;5004777;28;20233;-55
2022/03/21 05:40:41;;;;;;;12.33;8.93;;;2.80;99.90;;;3.55;54.66;-19847.69;5014706;28;20226;-54
2022/03/21 05:43:12;;;;;;;12.37;9.00;;;2.70;99.90;;;3.56;54.90;-19848.03;5021332;28;20253;-54
2022/03/21 05:45:43;;;;;;;12.87;8.70;;;2.80;99.90;;;3.56;55.03;-19848.03;5021026;28;20237;-53
2022/03/21 05:51:09;;;;;;;12.67;9.27;;;2.80;99.90;;;3.45;55.45;-19844.28;5019936;28;20222;-54
2022/03/21 05:53:57;;;;;;;12.43;8.80;;;2.80;99.90;;;3.69;54.89;-19852.66;4984189;28;20236;-55
2022/03/21 05:56:31;;;;;;;12.47;8.40;;;2.90;99.90;;;3.49;55.27;-19845.63;5020620;28;20234;-53
2022/03/21 06:02:00;;;;;;;13.73;9.87;;;2.90;99.90;;;3.74;54.06;-19854.19;5020064;28;20241;-53
2022/03/21 06:04:33;;;;;;;10.73;8.57;;;3.00;99.90;;;3.68;54.22;-19852.13;5020403;28;20586;-52
2022/03/21 06:07:07;;;;;;;11.80;9.20;;;3.00;99.90;;;3.81;53.90;-19856.41;5018465;28;20237;-54
2022/03/21 06:09:39;;;;;;;14.37;9.37;;;3.10;99.90;;;4.00;52.93;-19862.91;5017483;28;20240;-52
2022/03/21 06:12:17;;;;;;;12.73;8.87;;;3.20;99.90;;;3.91;53.28;-19859.84;5026588;28;20179;-52
2022/03/21 06:14:51;;;;;;;9.47;8.00;;;3.20;99.90;;;3.89;53.26;-19859.31;5026819;28;20309;-55
2022/03/21 06:17:20;;;;;;;11.60;9.23;;;3.30;99.90;;;4.26;52.15;-19871.97;5017203;28;20233;-57
2022/03/21 06:19:56;;;;;;;13.80;9.53;;;3.40;99.90;;;4.14;52.70;-19867.69;5014286;28;20242;-55
2022/03/21 06:22:31;;;;;;;10.90;8.70;;;3.50;99.90;;;4.32;52.06;-19873.84;5018205;28;20249;-55
2022/03/21 06:25:11;;;;;;;10.67;8.93;;;3.50;99.90;;;4.43;51.42;-19877.59;5017144;28;20284;-54
2022/03/21 06:27:41;;;;;;;12.63;8.67;;;3.60;99.90;;;4.37;51.67;-19875.72;5020716;28;20253;-54
2022/03/21 06:30:16;;;;;;;13.93;8.63;;;3.60;99.90;;;4.38;51.26;-19876.06;5026619;28;20209;-52
2022/03/21 06:32:53;;;;;;;12.40;8.90;;;3.70;99.90;;;4.50;51.49;-19880.00;5024063;28;20233;-51
2022/03/21 06:35:37;;;;;;;12.53;9.03;;;3.80;99.90;;;4.63;51.21;-19884.59;5019616;28;20233;-54
2022/03/21 06:38:11;;;;;;;12.23;8.57;;;3.90;99.90;;;4.78;51.35;-19889.75;5018832;28;20284;-52
2022/03/21 06:40:51;;;;;;;11.30;8.60;;;3.90;99.90;;;4.68;50.27;-19886.31;5019871;28;20245;-55
2022/03/21 06:43:40;;;;;;;11.73;8.07;;;4.00;99.90;;;4.91;49.99;-19894.00;5022524;28;20232;-54
2022/03/21 06:46:15;;;;;;;9.97;8.13;;;4.10;99.90;;;5.10;49.68;-19900.34;5013540;28;20233;-54
2022/03/21 06:48:48;;;;;;;11.20;9.57;;;4.20;99.90;;;4.94;49.44;-19895.03;5015431;28;20250;-56
2022/03/21 06:51:22;;;;;;;14.37;9.47;;;4.20;99.90;;;5.07;49.14;-19899.50;5018401;28;20210;-57
2022/03/21 06:53:55;;;;;;;11.70;8.30;;;4.30;99.90;;;5.20;48.48;-19903.75;5026047;28;20213;-53
2022/03/21 06:56:34;;;;;;;12.40;8.70;;;4.40;99.90;;;5.38;48.54;-19909.91;5015933;28;20235;-54
2022/03/21 06:59:08;;;;;;;11.60;8.33;;;4.50;99.90;;;5.65;48.15;-19919.16;4997035;28;20322;-55
2022/03/21 07:01:43;;;;;;;11.07;8.80;;;4.70;99.90;;;5.88;46.69;-19927.00;5010157;28;20308;-55
2022/03/21 07:04:20;;;;;;;13.53;9.20;;;4.90;99.90;;;5.84;46.13;-19925.81;5019913;28;20233;-52
2022/03/21 07:06:55;;;;;;;11.50;8.63;;;4.90;99.90;;;6.07;46.08;-19933.50;5000922;28;20243;-55
2022/03/21 07:09:32;;;;;;;11.63;8.37;;;5.00;99.90;;;6.00;45.98;-19931.13;5004614;28;20185;-53
2022/03/21 07:12:07;;;;;;;13.10;8.53;;;5.10;99.90;;;5.89;46.29;-19927.53;4994370;28;20223;-55
2022/03/21 07:14:39;;;;;;;11.70;8.20;;;5.10;99.90;;;5.98;46.54;-19930.59;5019468;28;20248;-56
2022/03/21 07:17:13;;;;;;;12.27;8.50;;;5.20;99.90;;;6.20;45.53;-19937.94;5021125;28;20293;-54
2022/03/21 07:19:44;;;;;;;9.90;8.00;;;5.30;99.90;;;6.14;45.62;-19936.06;5005147;28;20284;-57
2022/03/21 07:22:19;;;;;;;10.87;8.60;;;5.30;99.90;;;6.36;44.24;-19943.41;5019596;28;20231;-53
2022/03/21 07:24:54;;;;;;;12.77;9.07;;;5.40;99.90;;;6.35;44.65;-19943.06;5018962;28;20303;-56
2022/03/21 07:27:33;;;;;;;10.73;7.93;;;5.40;99.90;;;6.42;44.27;-19945.28;5022121;28;20753;-55
2022/03/21 07:30:09;;;;;;;10.37;8.30;;;5.50;99.90;;;6.38;45.12;-19944.09;5026787;28;20307;-56
2022/03/21 07:32:45;;;;;;;12.07;8.63;;;5.60;99.90;;;6.49;44.61;-19947.69;5017395;28;20302;-55
2022/03/21 07:35:20;;;;;;;13.43;8.70;;;5.70;99.90;;;6.89;43.64;-19961.34;5014456;28;20232;-55
2022/03/21 07:37:57;;;;;;;10.40;8.33;;;5.80;99.90;;;6.72;43.98;-19955.53;5022323;28;20257;-57
2022/03/21 07:40:31;;;;;;;11.37;8.00;;;5.90;99.90;;;6.95;43.59;-19963.56;5017093;28;20248;-55
2022/03/21 07:43:01;;;;;;;10.43;7.97;;;6.00;99.90;;;7.07;42.27;-19967.50;5003126;28;20237;-52
2022/03/21 07:48:20;;;;;;;14.53;8.83;;;6.20;99.90;;;7.15;42.93;-19970.41;5022139;28;20303;-57
2022/03/21 07:50:55;;;;;;;11.90;8.83;;;6.20;99.90;;;7.20;42.33;-19972.13;5026819;28;20251;-55
2022/03/21 07:53:31;;;;;;;10.43;8.30;;;6.20;99.90;;;7.24;42.51;-19973.50;5024828;28;20217;-54
2022/03/21 07:56:01;;;;;;;11.80;8.73;;;6.30;99.90;;;7.26;42.69;-19974.19;5019187;28;20257;-52
2022/03/21 07:58:33;;;;;;;11.57;9.00;;;6.40;99.90;;;7.35;42.66;-19977.25;5022413;28;20253;-55
2022/03/21 08:01:06;;;;;;;10.97;8.40;;;6.40;99.90;;;7.36;42.65;-19977.59;5020543;28;20336;-56
2022/03/21 08:03:43;;;;;;;12.80;9.20;;;6.50;99.90;;;7.54;42.46;-19983.56;5016143;28;20243;-55
2022/03/21 08:06:18;;;;;;;12.87;8.73;;;6.60;99.90;;;7.66;42.14;-19987.50;5009056;28;20289;-58
2022/03/21 08:08:57;;;;;;;13.83;10.20;;;6.70;99.90;;;7.78;41.40;-19991.59;5026154;28;20256;-56
2022/03/21 08:11:32;;;;;;;11.17;9.00;;;6.80;99.50;;;7.98;41.94;-19998.59;5021187;28;20297;-56
2022/03/21 08:14:08;;;;;;;10.60;8.23;;;7.00;99.90;;;8.15;40.80;-20004.25;5000221;28;20256;-55
2022/03/21 08:16:43;;;;;;;12.17;8.00;;;7.10;99.20;;;8.23;40.20;-20006.97;4999739;28;20241;-53
2022/03/21 08:19:16;;;;;;;10.60;8.40;;;7.20;98.70;;;8.34;39.89;-20010.91;5003969;28;20245;-56
2022/03/21 08:21:50;;;;;;;9.57;8.57;;;7.30;98.60;;;8.34;39.56;-20010.75;4978903;28;20248;-55
2022/03/21 08:24:30;;;;;;;10.83;8.70;;;7.40;98.10;;;8.28;39.70;-20008.88;4988776;28;20206;-52
2022/03/21 08:27:05;;;;;;;10.60;8.27;;;7.30;98.20;;;8.27;39.52;-20008.53;5004692;28;20225;-52
2022/03/21 08:29:43;;;;;;;10.97;8.80;;;7.30;97.90;;;8.37;39.34;-20011.78;4997861;28;20241;-55
2022/03/21 08:32:19;;;;;;;10.60;8.30;;;7.40;97.90;;;8.48;39.40;-20015.53;5012984;28;20268;-54
2022/03/21 08:34:52;;;;;;;10.03;8.40;;;7.50;98.10;;;8.63;38.90;-20020.81;5018711;28;20230;-54
2022/03/21 08:37:27;;;;;;;10.53;8.50;;;7.60;97.90;;;8.76;38.82;-20025.09;4997593;28;20229;-55
2022/03/21 08:40:06;;;;;;;10.13;8.67;;;7.70;97.90;;;8.85;39.34;-20028.16;5020197;28;20260;-54
2022/03/21 08:42:39;;;;;;;13.20;9.80;;;7.80;98.10;;;9.01;38.75;-20033.63;5013652;28;20241;-57
2022/03/21 08:45:13;;;;;;;12.43;8.73;;;7.90;97.80;;;9.10;38.81;-20036.53;5027921;28;20255;-55
2022/03/21 08:47:50;;;;;;;11.27;9.03;;;8.00;97.70;;;9.14;38.53;-20038.06;5025176;28;20230;-56
2022/03/21 08:50:34;;;;;;;11.67;9.37;;;8.10;97.60;;;9.16;38.21;-20038.59;5016640;28;20245;-57
2022/03/21 08:53:08;;;;;;;10.87;8.20;;;8.10;97.40;;;9.26;38.48;-20042.19;5004918;28;20237;-56
2022/03/21 08:55:44;;;;;;;10.07;8.43;;;8.20;97.60;;;9.50;37.65;-20050.22;5021083;28;20235;-56
2022/03/21 08:58:13;;;;;;;16.53;9.10;;;8.30;97.10;;;9.46;37.49;-20048.84;5023713;28;20226;-56
2022/03/21 09:00:44;;;;;;;9.77;8.73;;;8.40;96.80;;;9.45;38.12;-20048.66;5014086;28;20317;-57
2022/03/21 09:03:14;;;;;;;11.47;9.43;;;8.40;96.90;;;9.53;37.56;-20051.22;5012110;28;20207;-54
2022/03/21 09:05:46;;;;;;;10.77;8.73;;;8.50;96.80;;;9.56;36.87;-20052.44;5021581;28;20228;-56
2022/03/21 09:08:20;;;;;;;9.87;8.83;;;8.50;96.20;;;9.75;36.44;-20058.91;5019549;28;20230;-56
2022/03/21 09:11:00;;;;;;;12.87;8.67;;;8.60;96.30;;;9.65;37.74;-20055.34;5017056;28;20245;-55
2022/03/21 09:13:32;;;;;;;9.50;8.40;;;8.60;96.80;;;9.70;37.25;-20057.03;5006625;28;20226;-56
2022/03/21 09:16:08;;;;;;;12.77;9.30;;;8.70;96.20;;;9.89;36.82;-20063.69;4999864;28;20260;-53
2022/03/21 09:18:43;;;;;;;11.07;8.90;;;8.80;96.40;;;9.99;36.39;-20066.94;4998540;28;21107;-55
2022/03/21 09:21:19;;;;;;;10.97;8.97;;;8.90;96.20;;;10.06;36.75;-20069.16;5008740;28;20188;-55
2022/03/21 09:23:50;;;;;;;12.70;8.67;;;8.90;96.20;;;10.00;36.69;-20067.13;5008500;28;20277;-57
2022/03/21 09:26:22;;;;;;;15.23;9.70;;;9.00;96.10;;;10.20;36.57;-20073.97;4998207;28;20233;-55
2022/03/21 09:29:03;;;;;;;10.57;9.47;;;9.10;96.10;;;10.45;35.51;-20082.50;5001191;28;20237;-56
2022/03/21 09:31:35;;;;;;;10.77;8.70;;;9.20;95.70;;;10.29;35.99;-20077.19;5018645;28;20234;-56
2022/03/21 09:34:13;;;;;;;11.63;9.53;;;9.20;95.40;;;10.44;35.86;-20082.16;5015933;28;20230;-55
2022/03/21 09:36:48;;;;;;;11.57;9.20;;;9.30;95.60;;;10.44;36.05;-20082.31;5019808;28;20321;-53
2022/03/21 09:39:21;;;;;;;12.73;9.27;;;9.30;95.60;;;10.38;36.38;-20080.28;5027386;28;20301;-56
2022/03/21 09:41:57;;;;;;;11.47;8.40;;;9.30;95.90;;;10.60;35.63;-20087.78;5023792;28;20218;-54
2022/03/21 09:44:34;;;;;;;10.50;8.93;;;9.50;95.20;;;10.69;36.17;-20090.69;5022895;28;20222;-55
2022/03/21 09:50:01;;;;;;;10.90;9.03;;;9.60;94.90;;;10.66;35.13;-20089.66;5016916;28;20642;-57
2022/03/21 09:52:32;;;;;;;11.87;9.60;;;9.60;95.00;;;10.69;35.66;-20090.88;4993500;28;20249;-54
2022/03/21 09:55:05;;;;;;;11.10;8.83;;;9.60;95.30;;;10.89;34.96;-20097.53;5010631;28;20191;-54
2022/03/21 09:57:37;;;;;;;10.27;8.50;;;9.70;94.80;;;10.91;35.45;-20098.22;5012989;28;20203;-52
2022/03/21 10:00:08;;;;;;;11.67;9.73;;;9.70;95.10;;;11.03;35.14;-20102.31;5011604;28;20250;-53
2022/03/21 10:02:36;;;;;;;13.27;9.20;;;9.90;95.00;;;10.98;34.88;-20100.59;4993915;28;20298;-57
2022/03/21 10:05:05;;;;;;;12.33;9.17;;;9.80;94.60;;;11.11;34.80;-20104.88;4992069;28;20231;-56
2022/03/21 10:07:34;;;;;;;11.33;9.13;;;9.90;94.70;;;11.14;34.68;-20106.06;4992317;28;20306;-52
2022/03/21 10:10:09;;;;;;;11.40;9.17;;;9.90;94.60;;;11.02;35.73;-20102.13;4999926;28;20674;-56
2022/03/21 10:12:38;;;;;;;12.87;8.93;;;10.00;95.20;;;11.31;34.95;-20111.88;5012035;28;20245;-56
2022/03/21 10:15:09;;;;;;;9.43;8.43;;;10.10;94.90;;;11.43;34.77;-20115.97;5011361;28;20226;-54
2022/03/21 10:17:38;;;;;;;13.80;8.80;;;10.20;94.90;;;11.60;34.86;-20121.59;5011578;28;20238;-56
2022/03/21 10:20:13;;;;;;;11.40;8.97;;;10.30;94.70;;;11.67;34.49;-20124.16;5011083;28;20294;-54
2022/03/21 10:22:44;;;;;;;10.67;8.97;;;10.40;94.40;;;11.54;34.18;-20119.72;5010942;28;20317;-55
2022/03/21 10:25:16;;;;;;;11.97;9.00;;;10.50;94.00;;;11.78;34.33;-20127.75;5010935;28;20604;-55
2022/03/21 10:27:47;;;;;;;11.87;9.23;;;10.50;94.40;;;11.93;33.78;-20133.06;4997400;28;20255;-56
2022/03/21 10:30:23;;;;;;;10.30;9.10;;;10.60;93.90;;;11.93;33.76;-20133.06;4991340;28;20231;-56
2022/03/21 10:32:54;;;;;;;11.23;9.03;;;10.70;93.80;;;11.77;33.65;-20127.41;4991066;28;20231;-55
2022/03/21 10:35:27;;;;;;;11.37;8.77;;;10.70;93.50;;;11.59;33.33;-20121.44;4991426;28;20227;-55
2022/03/21 10:37:58;;;;;;;10.17;8.90;;;10.60;93.30;;;11.77;35.03;-20127.59;4991418;28;20306;-55
2022/03/21 10:40:30;;;;;;;10.87;9.77;;;10.70;93.90;;;12.03;33.85;-20136.47;4991167;28;20223;-55
2022/03/21 10:43:03;;;;;;;11.00;8.90;;;10.80;93.70;;;12.03;33.50;-20136.47;4991329;28;20187;-55
2022/03/21 10:45:45;;;;;;;10.47;8.97;;;10.80;93.40;;;12.00;32.89;-20135.28;4991963;28;20299;-53
2022/03/21 10:48:16;;;;;;;10.30;8.60;;;10.90;93.00;;;12.05;33.14;-20137.16;4991462;28;20227;-56
2022/03/21 10:50:46;;;;;;;10.30;8.77;;;10.90;93.20;;;12.14;32.94;-20140.22;4991159;28;20311;-56
2022/03/21 10:53:16;;;;;;;11.67;8.97;;;10.90;93.00;;;12.14;33.37;-20140.22;4990880;28;20262;-53
2022/03/21 10:55:46;;;;;;;10.70;8.67;;;11.00;93.10;;;12.26;33.37;-20144.31;4991037;28;20310;-55
2022/03/21 10:58:18;;;;;;;11.67;8.87;;;11.00;93.30;;;12.43;32.42;-20149.78;4990796;28;20651;-50
2022/03/21 11:00:46;;;;;;;9.83;8.83;;;11.20;92.80;;;12.24;33.21;-20143.63;4995690;28;20911;-54
2022/03/21 11:03:16;;;;;;;10.93;8.83;;;11.10;92.90;;;12.44;33.01;-20150.28;5010363;28;20317;-55
2022/03/21 11:05:47;;;;;;;10.13;8.50;;;11.20;92.90;;;12.48;33.13;-20151.50;5010044;28;20233;-56
2022/03/21 11:08:18;;;;;;;9.47;8.40;;;11.30;92.80;;;12.42;32.33;-20149.44;5010531;28;20231;-56